Thurston, Oregon
Current Conditions -  °F | °C
As of 2:54 PM on Tuesday 25 Nov 2014 (Local Time) from KEUG Reporting Station
Overcast Overcast  
Wind Chill: 60°   Ceiling: 5000
Heat Index: 60°   Visibility: 10mi
Dew Point: 53°   Wind: 7mph
Humidity: 78%   Direction: 190°S
Pressure: 30.37"   Gusts: NA
Location:  44.05°N, 122.92°W
Report Text: KEUG 252254Z 19006KT 10SM FEW025 SCT034 OVC050 16/12 A3037 RMK AO2 SLP285 T01560117
Loading
Personal Weather Stations






























Interactive Weather Map New forecast layout! Learn more

10-Day Weather Forecast

Advertisements
Track Severe Weather on mobile